createdAt,value
2023-02-11T00:00:54.189Z,13.88
2023-02-11T00:03:20.957Z,12.80
2023-02-11T00:05:57.270Z,13.77
2023-02-11T00:08:23.703Z,13.60
2023-02-11T00:10:58.161Z,12.77
2023-02-11T00:13:25.540Z,12.52
2023-02-11T00:15:52.547Z,14.77
2023-02-11T00:18:19.272Z,13.50
2023-02-11T00:20:45.780Z,14.75
2023-02-11T00:23:12.898Z,15.15
2023-02-11T00:25:44.428Z,13.77
2023-02-11T00:28:12.223Z,14.77
2023-02-11T00:30:40.840Z,12.38
2023-02-11T00:33:07.964Z,15.23
2023-02-11T00:35:37.093Z,13.25
2023-02-11T00:38:03.778Z,12.13
2023-02-11T00:40:31.116Z,13.27
2023-02-11T00:42:57.554Z,12.25
2023-02-11T00:45:24.331Z,13.02
2023-02-11T00:47:50.745Z,11.77
2023-02-11T00:50:17.217Z,12.80
2023-02-11T00:52:43.735Z,11.45
2023-02-11T00:55:10.213Z,10.95
2023-02-11T00:57:36.695Z,10.70
2023-02-11T01:00:05.430Z,10.68
2023-02-11T01:02:32.049Z,10.70
2023-02-11T01:04:59.987Z,10.10
2023-02-11T01:07:27.744Z,11.50
2023-02-11T01:09:54.740Z,10.80
2023-02-11T01:12:21.510Z,11.57
2023-02-11T01:14:48.532Z,12.43
2023-02-11T01:17:15.381Z,13.05
2023-02-11T01:19:42.544Z,13.30
2023-02-11T01:22:09.074Z,12.35
2023-02-11T01:24:35.605Z,11.95
2023-02-11T01:27:02.104Z,12.27
2023-02-11T01:29:28.533Z,11.50
2023-02-11T01:31:55.103Z,12.57
2023-02-11T01:34:21.637Z,12.93
2023-02-11T01:36:49.773Z,11.02
2023-02-11T01:39:16.171Z,12.05
2023-02-11T01:41:42.771Z,11.95
2023-02-11T01:44:32.184Z,11.80
2023-02-11T01:46:59.125Z,11.90
2023-02-11T01:49:36.201Z,11.60
2023-02-11T01:52:09.642Z,10.68
2023-02-11T01:55:05.274Z,12.40
2023-02-11T01:57:34.790Z,10.68
2023-02-11T02:00:07.200Z,10.70
2023-02-11T02:03:02.720Z,11.77
2023-02-11T02:05:43.299Z,13.05
2023-02-11T02:08:34.954Z,11.50
2023-02-11T02:13:31.545Z,10.38
2023-02-11T02:16:04.454Z,10.40
2023-02-11T02:19:10.541Z,10.23
2023-02-11T02:22:01.698Z,13.07
2023-02-11T02:24:56.653Z,11.80
2023-02-11T02:27:47.990Z,11.02
2023-02-11T02:30:48.727Z,9.93
2023-02-11T02:33:23.482Z,9.88
2023-02-11T02:36:05.175Z,10.50
2023-02-11T02:38:37.595Z,10.82
2023-02-11T02:41:10.875Z,10.75
2023-02-11T02:43:49.456Z,11.05
2023-02-11T02:46:17.934Z,11.10
2023-02-11T02:48:45.436Z,11.48
2023-02-11T02:51:39.070Z,10.93
2023-02-11T02:54:20.479Z,10.50
2023-02-11T02:57:02.946Z,11.00
2023-02-11T02:59:50.718Z,10.13
2023-02-11T03:02:33.605Z,12.23
2023-02-11T03:05:21.778Z,12.65
2023-02-11T03:08:09.174Z,10.20
2023-02-11T03:10:41.501Z,11.07
2023-02-11T03:13:08.684Z,10.70
2023-02-11T03:15:41.283Z,10.40
2023-02-11T03:18:11.402Z,11.85
2023-02-11T03:20:41.731Z,10.55
2023-02-11T03:23:14.754Z,12.35
2023-02-11T03:25:50.768Z,11.90
2023-02-11T03:28:46.328Z,11.93
2023-02-11T03:31:12.852Z,9.63
2023-02-11T03:33:54.507Z,10.20
2023-02-11T03:36:41.020Z,10.10
2023-02-11T03:39:10.546Z,9.82
2023-02-11T03:41:38.011Z,8.90
2023-02-11T03:44:06.054Z,11.80
2023-02-11T03:46:38.806Z,11.82
2023-02-11T03:49:11.052Z,12.02
2023-02-11T03:51:39.070Z,12.45
2023-02-11T03:54:11.955Z,12.05
2023-02-11T03:56:50.724Z,13.88
2023-02-11T03:59:17.255Z,10.15
2023-02-11T04:01:43.903Z,12.45
2023-02-11T04:04:10.711Z,11.85
2023-02-11T04:06:37.346Z,9.63
2023-02-11T04:09:03.933Z,11.30
2023-02-11T04:11:30.468Z,11.95
2023-02-11T04:13:57.099Z,11.20
2023-02-11T04:16:23.851Z,12.02
2023-02-11T04:18:50.394Z,12.55
2023-02-11T04:21:16.857Z,10.68
2023-02-11T04:23:43.326Z,11.90
2023-02-11T04:26:09.767Z,11.80
2023-02-11T04:28:36.362Z,10.93
2023-02-11T04:31:02.966Z,11.25
2023-02-11T04:33:29.505Z,11.07
2023-02-11T04:35:55.942Z,10.90
2023-02-11T04:38:24.096Z,10.45
2023-02-11T04:40:50.952Z,9.35
2023-02-11T04:43:17.510Z,10.07
2023-02-11T04:45:43.950Z,10.73
2023-02-11T04:48:10.564Z,9.88
2023-02-11T04:50:36.995Z,9.88
2023-02-11T04:53:03.491Z,8.85
2023-02-11T04:55:29.935Z,9.60
2023-02-11T04:57:56.458Z,9.35
2023-02-11T05:00:22.985Z,9.45
2023-02-11T05:02:49.490Z,10.00
2023-02-11T05:05:15.987Z,10.32
2023-02-11T05:07:42.425Z,9.13
2023-02-11T05:10:09.102Z,9.68
2023-02-11T05:12:35.557Z,10.27
2023-02-11T05:15:01.978Z,9.13
2023-02-11T05:17:28.500Z,7.15
2023-02-11T05:19:54.959Z,10.10
2023-02-11T05:22:22.182Z,9.45
2023-02-11T05:24:49.068Z,7.57
2023-02-11T05:27:15.531Z,7.63
2023-02-11T05:29:42.142Z,7.63
2023-02-11T05:32:08.990Z,7.93
2023-02-11T05:34:36.128Z,8.35
2023-02-11T05:37:02.586Z,9.63
2023-02-11T05:39:29.045Z,8.93
2023-02-11T05:41:55.560Z,9.38
2023-02-11T05:44:22.140Z,8.32
2023-02-11T05:46:49.358Z,8.63
2023-02-11T05:49:17.417Z,8.57
2023-02-11T05:51:44.021Z,7.28
2023-02-11T05:54:10.722Z,7.57
2023-02-11T05:56:37.207Z,7.80
2023-02-11T05:59:03.800Z,7.72
2023-02-11T06:01:30.417Z,6.65
2023-02-11T06:03:57.048Z,7.85
2023-02-11T06:06:23.764Z,6.85
2023-02-11T06:08:50.190Z,7.65
2023-02-11T06:11:17.603Z,7.28
2023-02-11T06:13:44.281Z,7.55
2023-02-11T06:16:10.781Z,7.50
2023-02-11T06:18:37.413Z,6.15
2023-02-11T06:21:07.801Z,7.80
2023-02-11T06:23:34.250Z,8.32
2023-02-11T06:26:06.502Z,6.90
2023-02-11T06:28:33.750Z,7.97
2023-02-11T06:31:06.587Z,8.10
2023-02-11T06:33:34.149Z,8.10
2023-02-11T06:36:00.921Z,7.90
2023-02-11T06:38:27.552Z,8.20
2023-02-11T06:40:54.167Z,9.60
2023-02-11T06:43:20.738Z,8.25
2023-02-11T06:45:53.344Z,7.18
2023-02-11T06:48:20.770Z,7.72
2023-02-11T06:50:47.586Z,10.13
2023-02-11T06:53:14.133Z,8.35
2023-02-11T06:55:40.651Z,9.13
2023-02-11T06:58:07.085Z,8.45
2023-02-11T07:00:33.544Z,8.57
2023-02-11T07:02:59.993Z,7.82
2023-02-11T07:05:26.584Z,8.70
2023-02-11T07:07:53.029Z,8.38
2023-02-11T07:10:19.426Z,8.02
2023-02-11T07:12:45.850Z,7.25
2023-02-11T07:15:12.426Z,7.50
2023-02-11T07:17:38.915Z,7.80
2023-02-11T07:20:05.690Z,7.35
2023-02-11T07:22:34.014Z,8.25
2023-02-11T07:25:00.439Z,8.45
2023-02-11T07:27:26.904Z,7.63
2023-02-11T07:29:53.368Z,7.80
2023-02-11T07:32:19.861Z,6.85
2023-02-11T07:34:48.060Z,7.38
2023-02-11T07:37:14.754Z,6.63
2023-02-11T07:39:41.244Z,7.03
2023-02-11T07:42:07.720Z,6.50
2023-02-11T07:44:35.048Z,7.95
2023-02-11T07:47:01.634Z,7.05
2023-02-11T07:49:28.675Z,8.35
2023-02-11T07:51:55.155Z,7.63
2023-02-11T07:54:21.999Z,7.97
2023-02-11T07:56:48.414Z,8.80
2023-02-11T07:59:14.890Z,9.25
2023-02-11T08:01:42.038Z,7.25
2023-02-11T08:04:08.458Z,7.93
2023-02-11T08:06:35.785Z,7.95
2023-02-11T08:09:07.715Z,6.72
2023-02-11T08:11:34.632Z,7.30
2023-02-11T08:14:01.462Z,7.53
2023-02-11T08:16:32.929Z,8.15
2023-02-11T08:19:02.310Z,8.27
2023-02-11T08:21:29.498Z,9.15
2023-02-11T08:23:56.545Z,7.43
2023-02-11T08:26:28.281Z,7.88
2023-02-11T08:31:25.436Z,7.05
2023-02-11T08:33:53.256Z,6.30
2023-02-11T08:36:23.113Z,6.85
2023-02-11T08:38:49.750Z,6.18
2023-02-11T08:41:17.288Z,8.00
2023-02-11T08:43:44.906Z,8.07
2023-02-11T08:46:15.180Z,10.02
2023-02-11T08:48:41.879Z,7.47
2023-02-11T08:51:15.967Z,6.85
2023-02-11T08:53:42.507Z,7.05
2023-02-11T08:56:13.313Z,8.85
2023-02-11T08:58:40.747Z,9.77
2023-02-11T09:01:24.847Z,7.57
2023-02-11T09:03:51.867Z,5.22
2023-02-11T09:06:19.237Z,6.50
2023-02-11T09:08:49.370Z,6.25
2023-02-11T09:11:17.492Z,6.97
2023-02-11T09:13:45.161Z,5.72
2023-02-11T09:16:23.797Z,14.18
2023-02-11T09:18:50.348Z,9.05
2023-02-11T09:21:18.069Z,8.77
2023-02-11T09:23:47.308Z,10.80
2023-02-11T09:26:20.686Z,9.57
2023-02-11T09:28:48.376Z,15.57
2023-02-11T09:31:17.485Z,14.15
2023-02-11T09:33:48.997Z,8.80
2023-02-11T09:36:21.538Z,7.97
2023-02-11T09:38:48.682Z,8.60
2023-02-11T09:41:32.991Z,11.05
2023-02-11T09:44:05.111Z,7.38
2023-02-11T09:46:37.836Z,5.65
2023-02-11T09:49:05.381Z,4.75
2023-02-11T09:52:06.330Z,4.80
2023-02-11T09:54:53.715Z,3.63
2023-02-11T09:57:28.521Z,3.70
2023-02-11T09:59:56.903Z,3.33
2023-02-11T10:02:45.343Z,3.78
2023-02-11T10:05:30.836Z,3.53
2023-02-11T10:08:09.915Z,5.70
2023-02-11T10:10:54.059Z,3.42
2023-02-11T10:13:35.812Z,3.00
2023-02-11T10:16:08.418Z,4.05
2023-02-11T10:18:46.370Z,3.60
2023-02-11T10:21:36.530Z,3.17
2023-02-11T10:24:10.157Z,3.08
2023-02-11T10:26:39.491Z,3.15
2023-02-11T10:29:23.050Z,3.42
2023-02-11T10:31:50.693Z,3.03
2023-02-11T10:34:17.252Z,3.88
2023-02-11T10:36:45.167Z,3.63
2023-02-11T10:39:16.663Z,3.90
2023-02-11T10:41:51.179Z,4.40
2023-02-11T10:44:26.772Z,4.68
2023-02-11T10:46:54.845Z,4.90
2023-02-11T10:49:47.930Z,4.80
2023-02-11T10:52:27.435Z,3.65
2023-02-11T10:55:14.463Z,4.35
2023-02-11T10:58:02.978Z,5.05
2023-02-11T11:00:42.357Z,4.72
2023-02-11T11:03:20.891Z,4.03
2023-02-11T11:05:53.456Z,4.93
2023-02-11T11:08:20.156Z,4.65
2023-02-11T11:11:03.792Z,4.82
2023-02-11T11:13:35.852Z,4.82
2023-02-11T11:16:08.240Z,4.30
2023-02-11T11:18:34.762Z,4.60
2023-02-11T11:21:05.773Z,4.32
2023-02-11T11:23:33.950Z,4.70
2023-02-11T11:26:09.540Z,4.07
2023-02-11T11:28:40.968Z,4.47
2023-02-11T11:31:45.865Z,4.50
2023-02-11T11:34:29.695Z,4.50
2023-02-11T11:36:58.070Z,3.83
2023-02-11T11:39:27.644Z,4.53
2023-02-11T11:42:24.557Z,5.20
2023-02-11T11:45:01.482Z,5.80
2023-02-11T11:47:44.784Z,5.18
2023-02-11T11:50:27.358Z,5.57
2023-02-11T11:53:04.413Z,5.50
2023-02-11T11:55:42.321Z,5.88
2023-02-11T11:58:23.053Z,5.45
2023-02-11T12:00:56.699Z,5.72
2023-02-11T12:03:44.018Z,7.03
2023-02-11T12:06:30.741Z,6.60
2023-02-11T12:09:09.428Z,6.15
2023-02-11T12:12:12.025Z,6.35
2023-02-11T12:14:53.879Z,7.43
2023-02-11T12:17:56.802Z,5.32
2023-02-11T12:20:51.509Z,6.10
2023-02-11T12:23:30.334Z,6.60
2023-02-11T12:26:16.982Z,6.60
2023-02-11T12:29:18.662Z,5.70
2023-02-11T12:31:50.911Z,6.18
2023-02-11T12:34:23.320Z,7.20
2023-02-11T12:36:55.992Z,8.40
2023-02-11T12:39:36.327Z,8.45
2023-02-11T12:42:41.739Z,9.25
2023-02-11T12:45:10.907Z,7.88
2023-02-11T12:47:49.366Z,7.90
2023-02-11T12:50:21.703Z,8.50
2023-02-11T12:53:22.910Z,9.48
2023-02-11T12:55:54.895Z,8.80
2023-02-11T12:58:35.634Z,8.95
2023-02-11T13:01:19.252Z,8.65
2023-02-11T13:03:56.886Z,8.68
2023-02-11T13:06:35.927Z,8.05
2023-02-11T13:09:07.129Z,9.20
2023-02-11T13:11:39.747Z,8.45
2023-02-11T13:14:13.941Z,10.30
2023-02-11T13:16:46.131Z,10.50
2023-02-11T13:19:12.661Z,10.10
2023-02-11T13:21:55.987Z,10.60
2023-02-11T13:24:29.185Z,9.80
2023-02-11T13:27:11.767Z,10.70
2023-02-11T13:30:15.768Z,11.55
2023-02-11T13:33:19.634Z,10.40
2023-02-11T13:36:08.521Z,10.45
2023-02-11T13:38:36.075Z,9.48
2023-02-11T13:41:04.455Z,10.75
2023-02-11T13:43:33.672Z,10.02
2023-02-11T13:46:10.554Z,9.85
2023-02-11T13:48:48.098Z,9.38
2023-02-11T13:51:18.276Z,8.93
2023-02-11T13:53:47.114Z,9.00
2023-02-11T13:56:28.073Z,9.20
2023-02-11T13:58:54.723Z,8.77
2023-02-11T14:01:39.035Z,8.30
2023-02-11T14:04:38.255Z,8.35
2023-02-11T14:07:51.120Z,7.88
2023-02-11T14:10:42.204Z,8.10
2023-02-11T14:13:23.440Z,8.23
2023-02-11T14:16:04.270Z,7.88
2023-02-11T14:18:45.700Z,8.90
2023-02-11T14:21:14.243Z,9.43
2023-02-11T14:23:41.436Z,8.35
2023-02-11T14:26:20.178Z,8.77
2023-02-11T14:29:05.435Z,8.98
2023-02-11T14:31:41.200Z,8.68
2023-02-11T14:34:41.784Z,9.05
2023-02-11T14:37:19.574Z,9.48
2023-02-11T14:40:15.807Z,8.77
2023-02-11T14:42:42.475Z,8.35
2023-02-11T14:45:14.350Z,9.68
2023-02-11T14:47:46.443Z,9.30
2023-02-11T14:50:53.746Z,9.15
2023-02-11T14:53:24.000Z,8.85
2023-02-11T14:55:53.249Z,9.77
2023-02-11T14:58:21.061Z,8.45
2023-02-11T15:00:59.456Z,8.43
2023-02-11T15:03:34.861Z,9.10
2023-02-11T15:06:24.034Z,9.55
2023-02-11T15:09:18.478Z,9.07
2023-02-11T15:11:48.684Z,9.98
2023-02-11T15:14:32.041Z,9.95
2023-02-11T15:17:04.476Z,9.63
2023-02-11T15:19:42.046Z,10.05
2023-02-11T15:22:22.153Z,9.82
2023-02-11T15:25:06.886Z,9.90
2023-02-11T15:27:41.517Z,9.70
2023-02-11T15:30:33.813Z,10.63
2023-02-11T15:33:03.267Z,10.65
2023-02-11T15:35:38.475Z,11.30
2023-02-11T15:38:05.650Z,10.98
2023-02-11T15:40:35.622Z,11.50
2023-02-11T15:43:07.625Z,10.88
2023-02-11T15:45:54.102Z,12.05
2023-02-11T15:48:29.169Z,10.27
2023-02-11T15:51:01.434Z,10.13
2023-02-11T15:53:40.602Z,11.35
2023-02-11T15:56:13.415Z,12.15
2023-02-11T15:58:42.370Z,11.68
2023-02-11T16:01:09.978Z,12.80
2023-02-11T16:03:36.745Z,12.27
2023-02-11T16:06:39.078Z,16.92
2023-02-11T16:09:08.295Z,12.20
2023-02-11T16:11:38.359Z,11.13
2023-02-11T16:14:23.279Z,12.63
2023-02-11T16:16:53.025Z,10.85
2023-02-11T16:19:24.157Z,11.63
2023-02-11T16:21:53.369Z,11.02
2023-02-11T16:24:28.018Z,11.75
2023-02-11T16:27:00.346Z,11.10
2023-02-11T16:29:29.194Z,10.75
2023-02-11T16:32:07.968Z,11.15
2023-02-11T16:34:35.104Z,11.30
2023-02-11T16:37:04.408Z,10.73
2023-02-11T16:39:30.967Z,12.15
2023-02-11T16:41:58.298Z,12.38
2023-02-11T16:44:24.936Z,11.98
2023-02-11T16:46:52.572Z,11.30
2023-02-11T16:49:31.456Z,12.60
2023-02-11T16:52:02.460Z,11.15
2023-02-11T16:54:30.106Z,11.52
2023-02-11T16:56:57.200Z,13.70
2023-02-11T16:59:23.601Z,12.07
2023-02-11T17:01:52.822Z,13.60
2023-02-11T17:04:31.379Z,13.65
2023-02-11T17:06:58.687Z,12.68
2023-02-11T17:09:30.366Z,13.45
2023-02-11T17:11:57.604Z,11.90
2023-02-11T17:14:24.243Z,12.52
2023-02-11T17:16:50.785Z,11.80
2023-02-11T17:19:21.787Z,11.85
2023-02-11T17:21:51.746Z,12.57
2023-02-11T17:24:18.880Z,13.18
2023-02-11T17:26:46.119Z,11.40
2023-02-11T17:29:22.069Z,12.20
2023-02-11T17:31:49.167Z,12.32
2023-02-11T17:34:16.838Z,11.75
2023-02-11T17:36:43.723Z,11.65
2023-02-11T17:39:10.305Z,12.18
2023-02-11T17:41:38.797Z,11.43
2023-02-11T17:44:06.480Z,12.32
2023-02-11T17:46:35.100Z,13.55
2023-02-11T17:49:02.440Z,12.20
2023-02-11T17:51:35.101Z,12.73
2023-02-11T17:54:04.446Z,13.23
2023-02-11T17:56:35.075Z,13.30
2023-02-11T17:59:02.833Z,12.75
2023-02-11T18:01:30.660Z,14.00
2023-02-11T18:03:57.223Z,13.35
2023-02-11T18:06:23.983Z,13.63
2023-02-11T18:08:50.429Z,14.30
2023-02-11T18:11:17.560Z,12.50
2023-02-11T18:13:45.306Z,12.05
2023-02-11T18:16:15.541Z,12.18
2023-02-11T18:18:43.217Z,12.70
2023-02-11T18:21:13.993Z,13.50
2023-02-11T18:23:40.541Z,14.07
2023-02-11T18:26:08.676Z,15.27
2023-02-11T18:28:35.318Z,14.25
2023-02-11T18:31:02.470Z,18.10
2023-02-11T18:33:30.453Z,14.20
2023-02-11T18:35:57.505Z,15.00
2023-02-11T18:38:25.042Z,14.48
2023-02-11T18:40:52.366Z,15.50
2023-02-11T18:43:21.793Z,14.07
2023-02-11T18:45:50.646Z,15.15
2023-02-11T18:48:18.612Z,13.30
2023-02-11T18:50:46.289Z,13.40
2023-02-11T18:53:15.525Z,14.50
2023-02-11T18:55:44.161Z,14.55
2023-02-11T18:58:10.988Z,13.85
2023-02-11T19:00:40.975Z,25.13
2023-02-11T19:03:07.434Z,86.82
2023-02-11T19:05:45.403Z,15.23
2023-02-11T19:08:13.070Z,14.23
2023-02-11T19:10:44.570Z,14.13
2023-02-11T19:13:11.630Z,14.90
2023-02-11T19:15:42.754Z,15.68
2023-02-11T19:18:09.866Z,19.83
2023-02-11T19:20:39.469Z,18.58
2023-02-11T19:23:05.997Z,14.73
2023-02-11T19:25:32.750Z,14.38
2023-02-11T19:28:00.230Z,14.23
2023-02-11T19:30:27.408Z,18.30
2023-02-11T19:32:56.948Z,16.10
2023-02-11T19:35:24.138Z,13.75
2023-02-11T19:37:50.643Z,17.33
2023-02-11T19:40:17.556Z,15.52
2023-02-11T19:42:44.003Z,16.27
2023-02-11T19:45:10.483Z,16.60
2023-02-11T19:47:37.039Z,17.13
2023-02-11T19:50:05.104Z,19.02
2023-02-11T19:52:31.792Z,17.48
2023-02-11T19:54:58.255Z,16.98
2023-02-11T19:57:24.822Z,16.33
2023-02-11T19:59:53.179Z,15.43
2023-02-11T20:02:19.733Z,14.85
2023-02-11T20:04:46.335Z,14.95
2023-02-11T20:07:12.864Z,14.88
2023-02-11T20:09:40.917Z,15.60
2023-02-11T20:12:07.444Z,16.45
2023-02-11T20:14:34.006Z,16.92
2023-02-11T20:17:00.441Z,15.85
2023-02-11T20:19:27.933Z,16.75
2023-02-11T20:21:55.541Z,17.27
2023-02-11T20:24:23.634Z,16.40
2023-02-11T20:26:55.074Z,16.33
2023-02-11T20:29:21.772Z,16.65
2023-02-11T20:31:49.807Z,15.25
2023-02-11T20:34:19.455Z,16.63
2023-02-11T20:36:51.630Z,17.35
2023-02-11T20:39:19.172Z,16.17
2023-02-11T20:41:46.073Z,16.42
2023-02-11T20:44:12.940Z,18.95
2023-02-11T20:46:42.774Z,17.20
2023-02-11T20:49:14.353Z,17.48
2023-02-11T20:51:41.491Z,17.77
2023-02-11T20:54:12.759Z,16.65
2023-02-11T20:56:39.518Z,17.73
2023-02-11T20:59:06.735Z,15.70
2023-02-11T21:01:36.164Z,17.25
2023-02-11T21:04:04.307Z,16.25
2023-02-11T21:06:37.353Z,14.73
2023-02-11T21:09:06.766Z,16.83
2023-02-11T21:11:33.603Z,16.98
2023-02-11T21:14:00.080Z,17.05
2023-02-11T21:16:27.144Z,18.73
2023-02-11T21:18:55.362Z,16.73
2023-02-11T21:21:22.459Z,17.15
2023-02-11T21:23:48.908Z,18.42
2023-02-11T21:26:16.920Z,17.35
2023-02-11T21:28:43.922Z,18.20
2023-02-11T21:31:22.550Z,16.98
2023-02-11T21:33:50.340Z,17.05
2023-02-11T21:36:16.962Z,18.13
2023-02-11T21:38:43.581Z,18.52
2023-02-11T21:41:11.317Z,17.50
2023-02-11T21:43:38.203Z,18.10
2023-02-11T21:46:12.656Z,17.48
2023-02-11T21:48:39.148Z,17.35
2023-02-11T21:51:15.037Z,18.23
2023-02-11T21:53:41.493Z,16.98
2023-02-11T21:56:14.004Z,16.75
2023-02-11T21:58:40.600Z,16.45
2023-02-11T22:01:30.881Z,17.70
2023-02-11T22:03:57.773Z,18.67
2023-02-11T22:06:27.142Z,18.17
2023-02-11T22:08:54.474Z,19.65
2023-02-11T22:11:21.030Z,17.42
2023-02-11T22:13:47.830Z,16.75
2023-02-11T22:16:16.361Z,18.10
2023-02-11T22:18:46.233Z,17.70
2023-02-11T22:21:15.621Z,17.63
2023-02-11T22:23:42.705Z,18.33
2023-02-11T22:26:12.911Z,18.48
2023-02-11T22:28:40.791Z,16.73
2023-02-11T22:31:12.245Z,17.40
2023-02-11T22:33:38.889Z,16.65
2023-02-11T22:36:09.024Z,17.60
2023-02-11T22:38:35.714Z,17.23
2023-02-11T22:41:08.010Z,17.33
2023-02-11T22:43:34.526Z,16.02
2023-02-11T22:46:05.812Z,17.48
2023-02-11T22:48:33.394Z,17.02
2023-02-11T22:51:07.936Z,17.95
2023-02-11T22:53:35.108Z,15.82
2023-02-11T22:56:03.872Z,17.38
2023-02-11T22:58:30.861Z,17.45
2023-02-11T23:00:57.512Z,17.40
2023-02-11T23:03:24.077Z,16.67
2023-02-11T23:05:50.557Z,17.75
2023-02-11T23:08:17.323Z,17.17
2023-02-11T23:10:44.007Z,17.67
2023-02-11T23:13:10.710Z,18.98
2023-02-11T23:15:41.858Z,16.98
2023-02-11T23:18:09.399Z,16.75
2023-02-11T23:20:37.365Z,17.83
2023-02-11T23:23:03.954Z,17.40
2023-02-11T23:25:31.312Z,17.70
2023-02-11T23:27:57.877Z,17.02
2023-02-11T23:30:24.454Z,17.98
2023-02-11T23:32:51.741Z,17.52
2023-02-11T23:35:22.957Z,17.20
2023-02-11T23:37:50.936Z,18.13
2023-02-11T23:40:18.305Z,17.30
2023-02-11T23:42:45.676Z,18.35
2023-02-11T23:45:12.211Z,18.33
2023-02-11T23:47:39.652Z,18.52
2023-02-11T23:50:07.567Z,17.65
2023-02-11T23:52:34.244Z,17.38
2023-02-11T23:55:00.700Z,16.92
2023-02-11T23:57:27.175Z,17.67
2023-02-11T23:59:53.663Z,18.20
